createdAt,value
2018-07-19T00:01:43.356Z,2.70
2018-07-19T00:02:43.363Z,2.90
2018-07-19T00:04:36.273Z,3.50
2018-07-19T00:05:36.265Z,3.00
2018-07-19T00:07:29.181Z,3.70
2018-07-19T00:08:29.179Z,4.20
2018-07-19T00:10:22.076Z,5.50
2018-07-19T00:11:22.085Z,3.90
2018-07-19T00:13:14.991Z,3.50
2018-07-19T00:14:14.990Z,3.00
2018-07-19T00:16:07.925Z,4.40
2018-07-19T00:17:07.894Z,4.40
2018-07-19T00:19:00.807Z,4.60
2018-07-19T00:20:00.807Z,2.90
2018-07-19T00:21:53.707Z,3.00
2018-07-19T00:22:53.707Z,2.80
2018-07-19T00:24:46.614Z,3.40
2018-07-19T00:25:46.616Z,3.10
2018-07-19T00:27:39.534Z,3.30
2018-07-19T00:28:39.519Z,3.70
2018-07-19T00:30:32.421Z,2.90
2018-07-19T00:31:32.423Z,3.40
2018-07-19T00:33:25.344Z,3.90
2018-07-19T00:34:25.333Z,2.80
2018-07-19T00:36:18.228Z,3.60
2018-07-19T00:37:18.240Z,3.10
2018-07-19T00:39:11.157Z,3.40
2018-07-19T00:40:11.144Z,2.90
2018-07-19T00:42:04.043Z,3.40
2018-07-19T00:43:04.051Z,2.70
2018-07-19T00:44:56.958Z,2.80
2018-07-19T00:45:56.961Z,3.10
2018-07-19T00:47:49.854Z,3.10
2018-07-19T00:48:49.861Z,3.00
2018-07-19T00:50:42.771Z,2.80
2018-07-19T00:51:42.769Z,3.30
2018-07-19T00:53:35.674Z,3.70
2018-07-19T00:54:35.678Z,3.20
2018-07-19T00:56:28.589Z,3.30
2018-07-19T00:57:28.587Z,2.90
2018-07-19T00:59:21.487Z,2.90
2018-07-19T01:00:21.490Z,4.00
2018-07-19T01:02:14.403Z,3.30
2018-07-19T01:03:14.397Z,3.80
2018-07-19T01:05:07.317Z,4.00
2018-07-19T01:06:07.319Z,3.20
2018-07-19T01:08:00.224Z,3.30
2018-07-19T01:09:00.223Z,3.20
2018-07-19T01:10:53.147Z,3.00
2018-07-19T01:11:53.133Z,4.30
2018-07-19T01:13:46.036Z,2.90
2018-07-19T01:14:46.040Z,2.80
2018-07-19T01:16:38.960Z,2.90
2018-07-19T01:17:38.950Z,3.00
2018-07-19T01:19:31.850Z,2.80
2018-07-19T01:20:31.856Z,2.80
2018-07-19T01:22:24.767Z,2.60
2018-07-19T01:23:24.759Z,2.80
2018-07-19T01:25:17.660Z,2.60
2018-07-19T01:26:17.667Z,2.80
2018-07-19T01:28:10.581Z,2.80
2018-07-19T01:29:10.582Z,2.90
2018-07-19T01:31:03.477Z,2.90
2018-07-19T01:32:03.484Z,3.50
2018-07-19T01:33:56.392Z,3.20
2018-07-19T01:34:56.387Z,7.70
2018-07-19T01:36:49.298Z,2.60
2018-07-19T01:37:49.298Z,2.80
2018-07-19T01:39:42.207Z,2.70
2018-07-19T01:40:42.203Z,2.70
2018-07-19T01:42:35.103Z,2.90
2018-07-19T01:43:35.108Z,3.30
2018-07-19T01:45:28.020Z,2.60
2018-07-19T01:46:28.014Z,3.40
2018-07-19T01:48:20.923Z,2.50
2018-07-19T01:49:20.924Z,3.70
2018-07-19T01:51:13.825Z,2.70
2018-07-19T01:52:13.830Z,2.70
2018-07-19T01:54:06.738Z,2.90
2018-07-19T01:55:06.741Z,2.60
2018-07-19T01:56:59.642Z,2.60
2018-07-19T01:57:59.643Z,2.70
2018-07-19T01:59:53.122Z,2.50
2018-07-19T02:00:52.742Z,2.50
2018-07-19T02:02:45.649Z,2.80
2018-07-19T02:03:45.658Z,3.10
2018-07-19T02:05:38.566Z,2.70
2018-07-19T02:06:38.560Z,2.50
2018-07-19T02:08:31.466Z,2.90
2018-07-19T02:09:31.472Z,4.80
2018-07-19T02:11:24.408Z,3.80
2018-07-19T02:12:24.376Z,2.60
2018-07-19T02:14:17.281Z,3.60
2018-07-19T02:15:17.285Z,3.30
2018-07-19T02:17:10.206Z,3.00
2018-07-19T02:18:10.194Z,2.60
2018-07-19T02:20:03.095Z,3.20
2018-07-19T02:21:03.101Z,2.60
2018-07-19T02:22:56.013Z,3.00
2018-07-19T02:23:56.010Z,2.70
2018-07-19T02:25:48.921Z,3.20
2018-07-19T02:26:48.917Z,2.70
2018-07-19T02:28:41.822Z,3.40
2018-07-19T02:29:41.823Z,2.70
2018-07-19T02:31:34.758Z,2.70
2018-07-19T02:32:34.733Z,2.70
2018-07-19T02:34:27.631Z,2.80
2018-07-19T02:35:27.634Z,3.30
2018-07-19T02:37:20.553Z,2.40
2018-07-19T02:38:20.552Z,3.70
2018-07-19T02:40:13.446Z,2.60
2018-07-19T02:41:13.460Z,2.80
2018-07-19T02:43:06.363Z,2.80
2018-07-19T02:44:06.368Z,2.60
2018-07-19T02:45:59.266Z,2.90
2018-07-19T02:46:59.278Z,2.80
2018-07-19T02:48:52.191Z,2.70
2018-07-19T02:49:52.177Z,2.60
2018-07-19T02:51:45.083Z,2.70
2018-07-19T02:52:45.087Z,2.70
2018-07-19T02:54:38.008Z,3.30
2018-07-19T02:55:38.001Z,2.70
2018-07-19T02:57:30.902Z,3.00
2018-07-19T02:58:30.905Z,3.00
2018-07-19T03:00:23.813Z,2.90
2018-07-19T03:01:23.813Z,2.70
2018-07-19T03:03:16.715Z,3.90
2018-07-19T03:04:16.716Z,3.60
2018-07-19T03:06:09.632Z,3.50
2018-07-19T03:07:09.627Z,2.60
2018-07-19T03:09:02.527Z,3.00
2018-07-19T03:10:02.526Z,2.90
2018-07-19T03:11:55.444Z,3.00
2018-07-19T03:12:55.437Z,2.80
2018-07-19T03:14:48.342Z,2.50
2018-07-19T03:15:48.348Z,3.90
2018-07-19T03:17:41.262Z,2.70
2018-07-19T03:18:41.257Z,5.10
2018-07-19T03:20:34.167Z,2.90
2018-07-19T03:21:34.163Z,2.90
2018-07-19T03:23:27.068Z,3.00
2018-07-19T03:24:27.070Z,3.00
2018-07-19T03:26:19.991Z,3.10
2018-07-19T03:27:19.978Z,3.20
2018-07-19T03:29:12.876Z,2.70
2018-07-19T03:30:12.885Z,3.90
2018-07-19T03:32:05.787Z,3.00
2018-07-19T03:33:05.785Z,2.80
2018-07-19T03:34:58.689Z,3.00
2018-07-19T03:35:58.692Z,2.60
2018-07-19T03:37:51.608Z,2.80
2018-07-19T03:38:51.607Z,5.10
2018-07-19T03:40:44.508Z,2.60
2018-07-19T03:41:44.508Z,2.70
2018-07-19T03:43:37.420Z,3.00
2018-07-19T03:44:37.421Z,2.90
2018-07-19T03:46:30.313Z,2.80
2018-07-19T03:47:30.325Z,3.60
2018-07-19T03:49:23.255Z,2.70
2018-07-19T03:50:23.250Z,2.50
2018-07-19T03:52:16.130Z,3.00
2018-07-19T03:53:16.129Z,3.40
2018-07-19T03:55:09.044Z,3.60
2018-07-19T03:56:09.040Z,3.00
2018-07-19T03:58:01.950Z,3.50
2018-07-19T03:59:01.951Z,3.20
2018-07-19T04:00:54.854Z,3.10
2018-07-19T04:01:54.866Z,3.10
2018-07-19T04:03:47.761Z,3.00
2018-07-19T04:04:47.790Z,2.80
2018-07-19T04:06:40.663Z,2.70
2018-07-19T04:07:40.678Z,2.90
2018-07-19T04:09:33.581Z,2.70
2018-07-19T04:10:33.574Z,3.30
2018-07-19T04:12:26.474Z,2.70
2018-07-19T04:13:26.483Z,3.90
2018-07-19T04:15:19.384Z,3.10
2018-07-19T04:16:19.376Z,2.90
2018-07-19T04:18:12.291Z,3.60
2018-07-19T04:19:12.296Z,2.60
2018-07-19T04:21:05.216Z,2.40
2018-07-19T04:22:05.213Z,3.60
2018-07-19T04:23:58.105Z,2.80
2018-07-19T04:24:58.133Z,3.50
2018-07-19T04:26:51.024Z,3.50
2018-07-19T04:27:51.015Z,2.70
2018-07-19T04:29:43.920Z,3.20
2018-07-19T04:30:43.926Z,2.70
2018-07-19T04:32:36.878Z,3.00
2018-07-19T04:33:36.876Z,3.00
2018-07-19T04:35:29.787Z,2.70
2018-07-19T04:36:29.785Z,3.10
2018-07-19T04:38:22.733Z,3.40
2018-07-19T04:39:22.691Z,3.10
2018-07-19T04:41:15.604Z,2.70
2018-07-19T04:42:15.599Z,3.20
2018-07-19T04:44:08.503Z,2.80
2018-07-19T04:45:08.505Z,3.40
2018-07-19T04:47:01.411Z,3.70
2018-07-19T04:48:01.413Z,3.00
2018-07-19T04:49:54.310Z,3.40
2018-07-19T04:50:54.314Z,4.40
2018-07-19T04:52:47.227Z,3.00
2018-07-19T04:53:47.221Z,3.70
2018-07-19T04:55:40.130Z,3.50
2018-07-19T04:56:40.131Z,2.90
2018-07-19T04:58:33.045Z,3.20
2018-07-19T04:59:33.035Z,2.60
2018-07-19T05:01:25.945Z,3.30
2018-07-19T05:02:25.946Z,3.30
2018-07-19T05:04:18.869Z,3.30
2018-07-19T05:05:18.855Z,3.80
2018-07-19T05:07:11.754Z,4.60
2018-07-19T05:08:11.758Z,3.50
2018-07-19T05:10:04.669Z,3.90
2018-07-19T05:11:04.670Z,4.90
2018-07-19T05:12:57.588Z,4.00
2018-07-19T05:13:57.596Z,4.00
2018-07-19T05:14:57.585Z,4.40
2018-07-19T05:15:57.593Z,6.60
2018-07-19T05:16:57.598Z,3.80
2018-07-19T05:17:57.607Z,3.50
2018-07-19T05:18:57.613Z,3.90
2018-07-19T05:19:57.622Z,3.20
2018-07-19T05:20:57.630Z,3.40
2018-07-19T05:21:57.642Z,4.10
2018-07-19T05:22:57.647Z,3.40
2018-07-19T05:23:57.658Z,3.30
2018-07-19T05:24:57.666Z,4.10
2018-07-19T05:25:57.675Z,4.00
2018-07-19T05:26:57.677Z,4.50
2018-07-19T05:27:57.691Z,3.30
2018-07-19T05:28:57.697Z,3.10
2018-07-19T05:29:57.704Z,3.20
2018-07-19T05:30:57.711Z,3.30
2018-07-19T05:31:57.725Z,4.20
2018-07-19T05:32:57.731Z,3.40
2018-07-19T05:33:57.738Z,2.90
2018-07-19T05:34:57.745Z,3.30
2018-07-19T05:35:57.760Z,3.30
2018-07-19T05:36:57.766Z,4.30
2018-07-19T05:37:57.774Z,3.00
2018-07-19T05:38:57.778Z,3.40
2018-07-19T05:39:57.791Z,3.40
2018-07-19T05:40:57.798Z,3.80
2018-07-19T05:41:57.842Z,4.70
2018-07-19T05:42:57.816Z,3.30
2018-07-19T05:43:57.819Z,3.20
2018-07-19T05:44:57.831Z,5.10
2018-07-19T05:45:57.836Z,3.50
2018-07-19T05:46:57.858Z,3.60
2018-07-19T05:47:57.859Z,3.50
2018-07-19T05:48:57.866Z,3.30
2018-07-19T05:49:57.871Z,4.30
2018-07-19T05:50:57.884Z,4.90
2018-07-19T05:51:57.891Z,4.40
2018-07-19T05:52:57.895Z,5.30
2018-07-19T05:53:57.909Z,3.80
2018-07-19T05:54:57.915Z,4.40
2018-07-19T05:55:57.923Z,4.30
2018-07-19T05:56:57.933Z,3.60
2018-07-19T05:57:57.941Z,3.40
2018-07-19T05:58:57.950Z,3.50
2018-07-19T05:59:57.955Z,3.50
2018-07-19T06:00:57.966Z,3.10
2018-07-19T06:01:57.979Z,4.40
2018-07-19T06:02:57.987Z,3.10
2018-07-19T06:03:57.990Z,4.20
2018-07-19T06:04:58.005Z,4.60
2018-07-19T06:05:58.009Z,3.50
2018-07-19T06:06:58.022Z,2.90
2018-07-19T06:07:58.026Z,3.90
2018-07-19T06:08:58.036Z,2.90
2018-07-19T06:09:58.048Z,4.20
2018-07-19T06:10:58.052Z,3.40
2018-07-19T06:11:58.061Z,4.10
2018-07-19T06:12:58.071Z,4.50
2018-07-19T06:13:58.079Z,3.60
2018-07-19T06:14:58.090Z,3.00
2018-07-19T06:15:58.115Z,3.20
2018-07-19T06:16:58.102Z,3.90
2018-07-19T06:17:58.118Z,3.30
2018-07-19T06:18:58.121Z,4.90
2018-07-19T06:19:58.145Z,3.50
2018-07-19T06:20:58.140Z,2.70
2018-07-19T06:21:58.153Z,3.70
2018-07-19T06:22:58.157Z,4.00
2018-07-19T06:23:58.179Z,7.30
2018-07-19T06:24:58.173Z,3.60
2018-07-19T06:25:58.184Z,5.00
2018-07-19T06:26:58.193Z,3.70
2018-07-19T06:27:58.204Z,3.20
2018-07-19T06:28:58.211Z,3.70
2018-07-19T06:29:58.219Z,2.60
2018-07-19T06:30:58.226Z,4.70
2018-07-19T06:31:58.236Z,4.60
2018-07-19T06:32:58.245Z,2.70
2018-07-19T06:33:58.255Z,3.70
2018-07-19T06:34:58.266Z,3.10
2018-07-19T06:35:58.274Z,3.60
2018-07-19T06:36:58.276Z,2.60
2018-07-19T06:37:58.290Z,3.10
2018-07-19T06:38:58.296Z,2.60
2018-07-19T06:39:58.301Z,3.20
2018-07-19T06:40:58.316Z,2.50
2018-07-19T06:41:58.321Z,3.00
2018-07-19T06:42:58.389Z,4.30
2018-07-19T06:43:58.341Z,3.30
2018-07-19T06:44:58.348Z,2.90
2018-07-19T06:45:58.360Z,2.50
2018-07-19T06:46:58.367Z,2.50
2018-07-19T06:47:58.368Z,2.90
2018-07-19T06:48:58.378Z,2.60
2018-07-19T06:49:58.390Z,2.50
2018-07-19T06:50:58.396Z,2.50
2018-07-19T06:51:58.409Z,2.50
2018-07-19T06:52:58.412Z,3.00
2018-07-19T06:53:58.424Z,2.40
2018-07-19T06:54:58.432Z,3.30
2018-07-19T06:55:58.439Z,2.50
2018-07-19T06:56:58.446Z,2.80
2018-07-19T06:57:58.458Z,2.70
2018-07-19T06:58:58.462Z,4.20
2018-07-19T06:59:58.469Z,2.30
2018-07-19T07:00:58.485Z,2.70
2018-07-19T07:01:58.492Z,3.50
2018-07-19T07:02:58.502Z,3.10
2018-07-19T07:03:58.507Z,2.60
2018-07-19T07:04:58.517Z,2.50
2018-07-19T07:05:58.524Z,2.50
2018-07-19T07:06:58.525Z,3.20
2018-07-19T07:07:58.536Z,2.80
2018-07-19T07:08:58.580Z,3.30
2018-07-19T07:09:58.557Z,3.10
2018-07-19T07:10:58.573Z,2.80
2018-07-19T07:11:58.579Z,3.20
2018-07-19T07:12:58.579Z,3.30
2018-07-19T07:13:58.583Z,2.50
2018-07-19T07:14:58.636Z,3.50
2018-07-19T07:15:58.602Z,4.10
2018-07-19T07:16:58.610Z,2.60
2018-07-19T07:17:58.624Z,3.60
2018-07-19T07:18:58.636Z,3.20
2018-07-19T07:19:58.630Z,3.70
2018-07-19T07:20:58.646Z,3.30
2018-07-19T07:21:58.649Z,2.40
2018-07-19T07:22:58.699Z,3.50
2018-07-19T07:23:58.667Z,3.40
2018-07-19T07:24:58.680Z,3.00
2018-07-19T07:25:58.681Z,3.40
2018-07-19T07:26:58.699Z,2.40
2018-07-19T07:27:58.701Z,4.70
2018-07-19T07:28:58.714Z,3.60
2018-07-19T07:29:58.716Z,2.70
2018-07-19T07:30:58.726Z,2.40
2018-07-19T07:31:58.734Z,3.10
2018-07-19T07:32:58.749Z,4.50
2018-07-19T07:33:58.752Z,4.40
2018-07-19T07:34:58.761Z,3.30
2018-07-19T07:35:58.762Z,5.00
2018-07-19T07:36:58.777Z,3.60
2018-07-19T07:37:58.784Z,2.90
2018-07-19T07:38:58.859Z,4.80
2018-07-19T07:39:58.799Z,3.90
2018-07-19T07:40:58.803Z,2.60
2018-07-19T07:41:58.813Z,2.90
2018-07-19T07:43:58.853Z,4.50
2018-07-19T07:44:58.837Z,6.10
2018-07-19T07:45:58.846Z,3.60
2018-07-19T07:46:58.855Z,2.70
2018-07-19T07:47:58.869Z,2.80
2018-07-19T07:48:58.872Z,2.80
2018-07-19T07:49:58.880Z,2.40
2018-07-19T07:50:58.889Z,2.90
2018-07-19T07:51:58.896Z,3.50
2018-07-19T07:52:58.907Z,4.20
2018-07-19T07:53:58.912Z,2.80
2018-07-19T07:54:58.921Z,3.10
2018-07-19T07:55:58.930Z,2.70
2018-07-19T07:56:58.948Z,3.50
2018-07-19T07:57:58.949Z,3.80
2018-07-19T07:58:58.955Z,4.30
2018-07-19T07:59:58.964Z,2.50
2018-07-19T08:00:58.969Z,4.80
2018-07-19T08:01:58.976Z,4.60
2018-07-19T08:02:58.994Z,6.70
2018-07-19T08:03:58.995Z,4.50
2018-07-19T08:04:59.001Z,4.90
2018-07-19T08:05:59.010Z,5.90
2018-07-19T08:06:59.019Z,19.10
2018-07-19T08:07:59.031Z,14.80
2018-07-19T08:08:59.038Z,13.30
2018-07-19T08:09:59.042Z,8.60
2018-07-19T08:10:59.053Z,7.70
2018-07-19T08:11:59.059Z,8.90
2018-07-19T08:12:59.074Z,7.70
2018-07-19T08:13:59.079Z,6.20
2018-07-19T08:14:59.084Z,6.40
2018-07-19T08:15:59.094Z,7.20
2018-07-19T08:16:59.098Z,5.00
2018-07-19T08:17:59.110Z,8.20
2018-07-19T08:18:59.118Z,5.20
2018-07-19T08:19:59.131Z,4.80
2018-07-19T08:20:59.138Z,3.10
2018-07-19T08:21:59.147Z,3.40
2018-07-19T08:22:59.154Z,3.90
2018-07-19T08:23:59.157Z,3.60
2018-07-19T08:24:59.173Z,3.00
2018-07-19T08:25:59.178Z,3.60
2018-07-19T08:26:59.185Z,5.70
2018-07-19T08:27:59.197Z,3.20
2018-07-19T08:28:59.254Z,2.40
2018-07-19T08:29:59.214Z,3.90
2018-07-19T08:30:59.220Z,2.90
2018-07-19T08:31:59.226Z,4.40
2018-07-19T08:32:59.244Z,4.20
2018-07-19T08:33:59.248Z,2.60
2018-07-19T08:34:59.250Z,3.20
2018-07-19T08:35:59.328Z,3.60
2018-07-19T08:36:59.267Z,7.50
2018-07-19T08:37:59.278Z,18.60
2018-07-19T08:38:59.290Z,12.10
2018-07-19T08:39:59.293Z,9.50
2018-07-19T08:40:59.307Z,7.80
2018-07-19T08:41:59.315Z,10.80
2018-07-19T08:42:59.327Z,10.00
2018-07-19T08:43:59.329Z,10.00
2018-07-19T08:44:59.333Z,4.50
2018-07-19T08:45:59.344Z,6.00
2018-07-19T08:46:59.355Z,3.50
2018-07-19T08:47:59.360Z,4.90
2018-07-19T08:48:59.371Z,4.10
2018-07-19T08:49:59.383Z,5.00
2018-07-19T08:50:59.385Z,3.90
2018-07-19T08:51:59.393Z,3.10
2018-07-19T08:52:59.407Z,3.20
2018-07-19T08:53:59.413Z,3.80
2018-07-19T08:54:59.420Z,3.60
2018-07-19T08:56:20.443Z,3.90
2018-07-19T08:56:59.443Z,4.50
2018-07-19T08:57:59.448Z,3.90
2018-07-19T08:58:59.458Z,3.40
2018-07-19T08:59:59.470Z,2.90
2018-07-19T09:00:59.470Z,2.80
2018-07-19T09:01:59.487Z,2.60
2018-07-19T09:02:59.491Z,3.30
2018-07-19T09:03:59.503Z,3.00
2018-07-19T09:04:59.511Z,3.20
2018-07-19T09:05:59.523Z,3.50
2018-07-19T09:06:59.533Z,2.90
2018-07-19T09:07:59.534Z,2.60
2018-07-19T09:08:59.548Z,3.40
2018-07-19T09:09:59.556Z,3.40
2018-07-19T09:10:59.558Z,3.40
2018-07-19T09:11:59.570Z,3.80
2018-07-19T09:12:59.625Z,2.60
2018-07-19T09:13:59.624Z,2.80
2018-07-19T09:14:59.591Z,3.40
2018-07-19T09:15:59.605Z,3.80
2018-07-19T09:16:59.619Z,2.90
2018-07-19T09:17:59.625Z,4.70
2018-07-19T09:18:59.632Z,4.50
2018-07-19T09:19:59.647Z,3.70
2018-07-19T09:20:59.667Z,3.60
2018-07-19T09:21:59.657Z,3.20
2018-07-19T09:22:59.666Z,2.60
2018-07-19T09:23:59.675Z,3.30
2018-07-19T09:24:59.690Z,3.30
2018-07-19T09:25:59.691Z,2.80
2018-07-19T09:26:59.707Z,3.00
2018-07-19T09:27:59.709Z,3.70
2018-07-19T09:28:59.721Z,3.80
2018-07-19T09:29:59.730Z,3.20
2018-07-19T09:30:59.740Z,3.10
2018-07-19T09:31:59.751Z,3.10
2018-07-19T09:32:59.758Z,2.80
2018-07-19T09:33:59.768Z,3.00
2018-07-19T09:34:59.778Z,4.10
2018-07-19T09:35:59.782Z,3.40
2018-07-19T09:36:59.793Z,2.60
2018-07-19T09:37:59.800Z,3.40
2018-07-19T09:38:59.816Z,3.20
2018-07-19T09:39:59.817Z,2.70
2018-07-19T09:40:59.841Z,2.60
2018-07-19T09:41:59.839Z,3.30
2018-07-19T09:42:59.847Z,2.70
2018-07-19T09:43:59.854Z,4.30
2018-07-19T09:44:59.867Z,3.00
2018-07-19T09:45:59.893Z,3.80
2018-07-19T09:46:59.886Z,4.10
2018-07-19T09:47:59.896Z,4.00
2018-07-19T09:48:59.905Z,3.10
2018-07-19T09:49:59.915Z,4.20
2018-07-19T09:50:59.922Z,3.30
2018-07-19T09:51:59.931Z,4.50
2018-07-19T09:52:59.941Z,2.70
2018-07-19T09:53:59.952Z,3.50
2018-07-19T09:54:59.966Z,3.20
2018-07-19T09:55:59.974Z,5.60
2018-07-19T09:56:59.979Z,3.80
2018-07-19T09:57:59.990Z,2.60
2018-07-19T09:58:59.994Z,2.80
2018-07-19T10:00:00.009Z,2.80
2018-07-19T10:01:00.017Z,2.70
2018-07-19T10:02:00.023Z,4.50
2018-07-19T10:03:00.036Z,3.00
2018-07-19T10:04:00.041Z,3.50
2018-07-19T10:05:00.050Z,3.60
2018-07-19T10:06:00.068Z,3.80
2018-07-19T10:07:00.073Z,3.50
2018-07-19T10:08:00.082Z,3.70
2018-07-19T10:09:00.090Z,2.80
2018-07-19T10:10:00.158Z,3.50
2018-07-19T10:11:00.112Z,4.10
2018-07-19T10:12:00.140Z,3.00
2018-07-19T10:13:00.128Z,3.00
2018-07-19T10:14:00.135Z,2.60
2018-07-19T10:15:00.193Z,3.00
2018-07-19T10:16:00.159Z,3.60
2018-07-19T10:17:00.167Z,3.80
2018-07-19T10:18:00.178Z,2.90
2018-07-19T10:19:00.188Z,2.80
2018-07-19T10:20:00.192Z,5.70
2018-07-19T10:21:00.204Z,3.70
2018-07-19T10:22:00.215Z,4.00
2018-07-19T10:23:00.226Z,3.30
2018-07-19T10:24:00.232Z,3.90
2018-07-19T10:25:00.241Z,3.50
2018-07-19T10:26:00.258Z,2.90
2018-07-19T10:27:00.261Z,2.90
2018-07-19T10:28:00.275Z,4.10
2018-07-19T10:29:00.282Z,3.40
2018-07-19T10:30:00.292Z,3.70
2018-07-19T10:31:00.301Z,3.10
2018-07-19T10:32:00.379Z,3.70
2018-07-19T10:33:00.315Z,3.40
2018-07-19T10:34:00.340Z,3.00
2018-07-19T10:35:00.337Z,4.10
2018-07-19T10:36:00.351Z,3.40
2018-07-19T10:37:00.357Z,3.00
2018-07-19T10:38:00.367Z,3.70
2018-07-19T10:39:00.374Z,4.70
2018-07-19T10:40:00.383Z,3.30
2018-07-19T10:41:00.400Z,3.70
2018-07-19T10:42:00.407Z,3.00
2018-07-19T10:43:00.429Z,2.90
2018-07-19T10:44:00.427Z,3.80
2018-07-19T10:45:00.444Z,4.10
2018-07-19T10:46:00.489Z,3.40
2018-07-19T10:47:00.453Z,3.80
2018-07-19T10:48:00.460Z,4.20
2018-07-19T10:49:00.473Z,3.50
2018-07-19T10:50:00.487Z,3.20
2018-07-19T10:51:00.490Z,4.40
2018-07-19T10:52:00.552Z,5.10
2018-07-19T10:53:00.518Z,3.20
2018-07-19T10:54:00.523Z,3.90
2018-07-19T10:55:00.531Z,3.90
2018-07-19T10:56:00.540Z,3.20
2018-07-19T10:57:00.552Z,5.10
2018-07-19T10:58:00.558Z,3.30
2018-07-19T10:59:00.573Z,3.40
2018-07-19T11:00:00.576Z,4.10
2018-07-19T11:01:00.591Z,4.60
2018-07-19T11:02:00.601Z,3.20
2018-07-19T11:03:00.611Z,3.20
2018-07-19T11:04:00.616Z,2.90
2018-07-19T11:05:00.654Z,3.50
2018-07-19T11:06:00.637Z,3.50
2018-07-19T11:07:00.645Z,3.10
2018-07-19T11:08:00.654Z,3.30
2018-07-19T11:09:00.666Z,3.40
2018-07-19T11:10:00.683Z,3.20
2018-07-19T11:11:00.685Z,4.30
2018-07-19T11:12:00.695Z,3.50
2018-07-19T11:13:00.704Z,3.00
2018-07-19T11:14:00.713Z,3.60
2018-07-19T11:15:00.720Z,4.40
2018-07-19T11:16:00.739Z,3.30
2018-07-19T11:17:00.746Z,4.40
2018-07-19T11:18:00.753Z,4.30
2018-07-19T11:19:00.765Z,4.40
2018-07-19T11:20:00.775Z,4.20
2018-07-19T11:21:00.779Z,4.50
2018-07-19T11:22:00.793Z,4.70
2018-07-19T11:23:00.806Z,3.30
2018-07-19T11:24:00.816Z,3.20
2018-07-19T11:25:00.829Z,3.30
2018-07-19T11:26:00.836Z,3.30
2018-07-19T11:27:00.840Z,4.20
2018-07-19T11:28:00.847Z,3.60
2018-07-19T11:29:00.864Z,3.40
2018-07-19T11:30:00.869Z,3.30
2018-07-19T11:31:00.882Z,3.00
2018-07-19T11:32:00.886Z,3.10
2018-07-19T11:33:00.922Z,3.70
2018-07-19T11:34:00.913Z,3.30
2018-07-19T11:35:00.921Z,3.20
2018-07-19T11:36:00.928Z,3.30
2018-07-19T11:37:00.941Z,4.30
2018-07-19T11:38:00.959Z,3.70
2018-07-19T11:39:00.959Z,3.90
2018-07-19T11:40:00.965Z,3.20
2018-07-19T11:41:00.980Z,3.60
2018-07-19T11:42:00.988Z,3.50
2018-07-19T11:43:00.997Z,3.80
2018-07-19T11:44:01.012Z,4.00
2018-07-19T11:45:01.017Z,3.40
2018-07-19T11:46:01.034Z,3.80
2018-07-19T11:47:01.039Z,3.50
2018-07-19T11:48:01.055Z,3.30
2018-07-19T11:49:01.060Z,3.30
2018-07-19T11:50:01.104Z,2.90
2018-07-19T11:51:01.080Z,3.20
2018-07-19T11:52:01.096Z,3.10
2018-07-19T11:53:01.099Z,4.20
2018-07-19T11:54:01.109Z,3.20
2018-07-19T11:55:01.125Z,3.50
2018-07-19T11:56:01.130Z,2.90
2018-07-19T11:57:01.138Z,4.30
2018-07-19T11:58:01.148Z,3.80
2018-07-19T11:59:01.161Z,3.60
2018-07-19T12:00:01.163Z,3.30
2018-07-19T12:01:01.176Z,4.30
2018-07-19T12:02:01.190Z,3.10
2018-07-19T12:03:01.196Z,3.40
2018-07-19T12:04:01.207Z,3.40
2018-07-19T12:05:01.215Z,4.90
2018-07-19T12:06:01.224Z,6.10
2018-07-19T12:07:01.236Z,4.70
2018-07-19T12:08:01.244Z,5.80
2018-07-19T12:09:01.258Z,3.90
2018-07-19T12:10:01.260Z,4.10
2018-07-19T12:11:01.273Z,5.60
2018-07-19T12:12:01.284Z,6.60
2018-07-19T12:13:01.291Z,5.30
2018-07-19T12:14:01.305Z,4.40
2018-07-19T12:15:01.310Z,5.80
2018-07-19T12:16:01.321Z,3.90
2018-07-19T12:17:01.330Z,4.20
2018-07-19T12:18:01.360Z,3.80
2018-07-19T12:19:01.350Z,3.80
2018-07-19T12:20:01.360Z,3.10
2018-07-19T12:21:01.380Z,5.10
2018-07-19T12:22:01.380Z,5.80
2018-07-19T12:23:01.386Z,4.20
2018-07-19T12:24:01.404Z,4.10
2018-07-19T12:25:01.410Z,4.60
2018-07-19T12:26:01.420Z,3.90
2018-07-19T12:27:01.424Z,4.10
2018-07-19T12:28:01.435Z,2.90
2018-07-19T12:29:01.445Z,3.10
2018-07-19T12:30:01.456Z,3.50
2018-07-19T12:31:01.466Z,5.00
2018-07-19T12:32:01.477Z,3.40
2018-07-19T12:33:01.481Z,4.10
2018-07-19T12:34:01.493Z,3.80
2018-07-19T12:35:01.503Z,3.70
2018-07-19T12:36:01.518Z,3.30
2018-07-19T12:37:01.523Z,3.40
2018-07-19T12:38:01.615Z,2.90
2018-07-19T12:39:01.547Z,3.70
2018-07-19T12:40:01.554Z,3.30
2018-07-19T12:41:01.562Z,4.10
2018-07-19T12:42:01.581Z,3.20
2018-07-19T12:43:01.581Z,3.00
2018-07-19T12:44:01.588Z,4.10
2018-07-19T12:45:01.601Z,4.50
2018-07-19T12:46:01.610Z,2.90
2018-07-19T12:47:01.617Z,3.80
2018-07-19T12:48:01.628Z,3.20
2018-07-19T12:49:01.679Z,4.00
2018-07-19T12:50:01.649Z,3.70
2018-07-19T12:51:01.655Z,3.10
2018-07-19T12:52:01.702Z,3.20
2018-07-19T12:53:01.675Z,4.30
2018-07-19T12:54:01.686Z,4.10
2018-07-19T12:55:01.701Z,3.50
2018-07-19T12:56:01.705Z,3.80
2018-07-19T12:57:01.773Z,3.30
2018-07-19T12:58:01.732Z,3.90
2018-07-19T12:59:01.739Z,3.70
2018-07-19T13:00:01.748Z,5.20
2018-07-19T13:01:01.760Z,4.20
2018-07-19T13:02:01.765Z,3.60
2018-07-19T13:03:01.776Z,6.20
2018-07-19T13:04:01.785Z,5.00
2018-07-19T13:05:01.801Z,3.70
2018-07-19T13:06:01.809Z,4.30
2018-07-19T13:07:01.813Z,4.80
2018-07-19T13:08:01.827Z,5.70
2018-07-19T13:09:01.837Z,3.80
2018-07-19T13:10:01.847Z,5.20
2018-07-19T13:11:01.857Z,4.80
2018-07-19T13:12:01.860Z,4.10
2018-07-19T13:13:01.876Z,3.90
2018-07-19T13:14:01.884Z,4.80
2018-07-19T13:15:01.898Z,4.90
2018-07-19T13:16:01.907Z,3.60
2018-07-19T13:17:01.913Z,3.50
2018-07-19T13:18:01.927Z,4.60
2018-07-19T13:19:01.936Z,3.20
2018-07-19T13:20:01.943Z,4.10
2018-07-19T13:21:01.950Z,3.20
2018-07-19T13:22:02.001Z,4.30
2018-07-19T13:23:01.980Z,4.50
2018-07-19T13:24:01.990Z,4.60
2018-07-19T13:25:01.992Z,4.50
2018-07-19T13:26:01.997Z,4.60
2018-07-19T13:27:02.010Z,4.10
2018-07-19T13:28:02.041Z,4.50
2018-07-19T13:29:02.033Z,4.00
2018-07-19T13:30:02.040Z,3.50
2018-07-19T13:31:02.101Z,4.50
2018-07-19T13:32:02.062Z,3.80
2018-07-19T13:33:02.071Z,4.20
2018-07-19T13:34:02.078Z,4.50
2018-07-19T13:35:02.090Z,5.50
2018-07-19T13:36:02.098Z,4.80
2018-07-19T13:37:02.109Z,5.50
2018-07-19T13:38:02.134Z,4.80
2018-07-19T13:39:02.127Z,4.70
2018-07-19T13:40:02.140Z,5.90
2018-07-19T13:41:02.148Z,6.30
2018-07-19T13:42:02.154Z,5.30
2018-07-19T13:43:02.167Z,6.30
2018-07-19T13:44:02.174Z,5.60
2018-07-19T13:45:02.186Z,5.40
2018-07-19T13:46:02.200Z,5.30
2018-07-19T13:47:02.206Z,5.50
2018-07-19T13:48:02.224Z,6.50
2018-07-19T13:49:02.230Z,5.40
2018-07-19T13:50:02.233Z,3.80
2018-07-19T13:51:02.239Z,4.50
2018-07-19T13:52:02.251Z,3.90
2018-07-19T13:53:02.263Z,5.20
2018-07-19T13:54:02.278Z,4.30
2018-07-19T13:55:02.283Z,4.60
2018-07-19T13:56:02.339Z,4.70
2018-07-19T13:57:02.301Z,4.70
2018-07-19T13:58:02.316Z,5.70
2018-07-19T13:59:02.327Z,4.20
2018-07-19T14:00:02.373Z,5.10
2018-07-19T14:01:02.342Z,4.00
2018-07-19T14:02:02.353Z,4.30
2018-07-19T14:03:02.363Z,4.60
2018-07-19T14:04:02.409Z,4.80
2018-07-19T14:05:02.386Z,4.10
2018-07-19T14:06:02.392Z,4.60
2018-07-19T14:07:02.403Z,3.80
2018-07-19T14:08:02.414Z,3.80
2018-07-19T14:09:02.423Z,4.10
2018-07-19T14:10:02.433Z,4.70
2018-07-19T14:11:02.447Z,4.00
2018-07-19T14:12:02.456Z,4.50
2018-07-19T14:13:02.463Z,4.40
2018-07-19T14:14:02.472Z,4.60
2018-07-19T14:15:02.487Z,3.90
2018-07-19T14:16:02.493Z,4.50
2018-07-19T14:17:02.507Z,4.00
2018-07-19T14:18:02.516Z,3.70
2018-07-19T14:19:02.532Z,3.00
2018-07-19T14:20:02.530Z,4.30
2018-07-19T14:21:02.544Z,4.00
2018-07-19T14:22:02.564Z,4.00
2018-07-19T14:23:02.563Z,3.70
2018-07-19T14:24:02.573Z,3.20
2018-07-19T14:25:02.585Z,3.60
2018-07-19T14:26:02.591Z,3.70
2018-07-19T14:27:02.605Z,4.00
2018-07-19T14:28:02.610Z,3.50
2018-07-19T14:29:02.626Z,3.60
2018-07-19T14:30:02.631Z,3.90
2018-07-19T14:31:02.642Z,3.90
2018-07-19T14:32:02.671Z,4.00
2018-07-19T14:33:02.663Z,3.30
2018-07-19T14:34:02.671Z,4.70
2018-07-19T14:35:02.687Z,3.80
2018-07-19T14:36:02.692Z,3.50
2018-07-19T14:37:02.701Z,4.40
2018-07-19T14:38:02.715Z,3.60
2018-07-19T14:39:02.721Z,3.90
2018-07-19T14:40:02.730Z,3.70
2018-07-19T14:41:02.744Z,3.30
2018-07-19T14:42:02.790Z,3.20
2018-07-19T14:43:02.763Z,3.80
2018-07-19T14:44:02.771Z,4.00
2018-07-19T14:45:02.778Z,3.70
2018-07-19T14:46:02.792Z,3.60
2018-07-19T14:47:02.814Z,3.00
2018-07-19T14:48:02.820Z,3.20
2018-07-19T14:49:02.818Z,3.70
2018-07-19T14:50:02.835Z,3.90
2018-07-19T14:51:02.842Z,3.60
2018-07-19T14:52:02.862Z,3.30
2018-07-19T14:53:02.861Z,3.40
2018-07-19T14:54:02.876Z,3.60
2018-07-19T14:55:02.880Z,3.20
2018-07-19T14:56:02.912Z,3.80